createdAt,value
2018-09-30T00:02:11.770Z,7.56
2018-09-30T00:05:16.219Z,7.39
2018-09-30T00:08:20.660Z,7.44
2018-09-30T00:11:25.115Z,7.46
2018-09-30T00:14:29.634Z,7.40
2018-09-30T00:17:34.084Z,7.29
2018-09-30T00:20:38.534Z,7.16
2018-09-30T00:23:48.187Z,7.20
2018-09-30T00:26:59.005Z,7.24
2018-09-30T00:30:03.660Z,7.17
2018-09-30T00:33:08.414Z,7.28
2018-09-30T00:36:12.898Z,7.09
2018-09-30T00:39:17.302Z,7.05
2018-09-30T00:42:21.759Z,7.15
2018-09-30T00:45:26.203Z,7.18
2018-09-30T00:48:30.622Z,7.05
2018-09-30T00:51:35.137Z,7.04
2018-09-30T00:54:39.603Z,6.95
2018-09-30T00:57:44.038Z,6.94
2018-09-30T01:00:48.498Z,6.78
2018-09-30T01:03:52.961Z,6.78
2018-09-30T01:06:57.437Z,7.00
2018-09-30T01:10:01.929Z,6.89
2018-09-30T01:13:06.699Z,6.96
2018-09-30T01:16:11.418Z,6.78
2018-09-30T01:19:15.876Z,6.66
2018-09-30T01:22:20.323Z,6.61
2018-09-30T01:25:24.818Z,6.58
2018-09-30T01:28:29.253Z,6.52
2018-09-30T01:31:33.710Z,6.52
2018-09-30T01:34:38.155Z,6.56
2018-09-30T01:37:42.578Z,6.61
2018-09-30T01:40:47.026Z,6.66
2018-09-30T01:43:51.449Z,6.62
2018-09-30T01:46:55.884Z,6.66
2018-09-30T01:50:00.362Z,6.77
2018-09-30T01:53:04.823Z,6.67
2018-09-30T01:56:09.250Z,6.57
2018-09-30T01:59:13.669Z,6.62
2018-09-30T02:02:18.114Z,6.61
2018-09-30T02:05:22.638Z,6.60
2018-09-30T02:08:27.055Z,6.37
2018-09-30T02:11:31.481Z,6.27
2018-09-30T02:14:35.894Z,6.27
2018-09-30T02:17:40.334Z,6.26
2018-09-30T02:20:44.762Z,6.18
2018-09-30T02:23:49.170Z,6.09
2018-09-30T02:26:53.590Z,6.08
2018-09-30T02:29:57.993Z,6.21
2018-09-30T02:33:02.474Z,6.18
2018-09-30T02:36:06.931Z,6.05
2018-09-30T02:39:11.354Z,6.01
2018-09-30T02:42:15.786Z,6.04
2018-09-30T02:45:20.210Z,6.08
2018-09-30T02:48:24.650Z,5.89
2018-09-30T02:51:29.103Z,5.80
2018-09-30T02:54:33.563Z,5.88
2018-09-30T02:57:37.982Z,5.92
2018-09-30T03:00:42.487Z,6.01
2018-09-30T03:03:46.902Z,5.89
2018-09-30T03:06:56.597Z,5.92
2018-09-30T03:10:01.126Z,5.87
2018-09-30T03:13:05.565Z,5.86
2018-09-30T03:16:09.993Z,5.83
2018-09-30T03:19:14.901Z,5.90
2018-09-30T03:22:19.329Z,5.80
2018-09-30T03:25:23.785Z,5.76
2018-09-30T03:28:28.206Z,5.74
2018-09-30T03:31:32.615Z,5.80
2018-09-30T03:34:37.050Z,5.76
2018-09-30T03:37:41.490Z,5.74
2018-09-30T03:40:45.935Z,5.78
2018-09-30T03:43:50.429Z,5.85
2018-09-30T03:46:54.842Z,5.77
2018-09-30T03:49:59.265Z,5.87
2018-09-30T03:53:03.706Z,5.86
2018-09-30T03:56:08.187Z,5.78
2018-09-30T03:59:12.642Z,5.81
2018-09-30T04:02:17.052Z,5.80
2018-09-30T04:05:21.481Z,5.84
2018-09-30T04:08:25.911Z,5.99
2018-09-30T04:11:30.309Z,5.95
2018-09-30T04:14:34.739Z,5.92
2018-09-30T04:17:39.150Z,5.93
2018-09-30T04:20:43.618Z,5.87
2018-09-30T04:23:48.054Z,5.93
2018-09-30T04:26:52.459Z,6.07
2018-09-30T04:29:56.882Z,6.08
2018-09-30T04:33:01.311Z,6.17
2018-09-30T04:36:05.748Z,6.17
2018-09-30T04:39:10.474Z,6.17
2018-09-30T04:42:14.874Z,6.24
2018-09-30T04:45:19.305Z,6.33
2018-09-30T04:48:23.738Z,6.40
2018-09-30T04:51:28.210Z,6.42
2018-09-30T04:54:32.847Z,6.39
2018-09-30T04:57:37.293Z,6.46
2018-09-30T05:00:41.726Z,6.45
2018-09-30T05:03:46.154Z,6.42
2018-09-30T05:06:50.605Z,6.43
2018-09-30T05:09:55.046Z,6.43
2018-09-30T05:12:59.521Z,6.33
2018-09-30T05:16:03.985Z,6.38
2018-09-30T05:19:08.466Z,6.31
2018-09-30T05:22:12.882Z,6.41
2018-09-30T05:25:17.362Z,6.39
2018-09-30T05:28:21.782Z,6.28
2018-09-30T05:31:26.290Z,6.18
2018-09-30T05:34:30.747Z,6.26
2018-09-30T05:37:35.161Z,6.26
2018-09-30T05:40:39.623Z,6.30
2018-09-30T05:43:44.037Z,6.35
2018-09-30T05:46:48.490Z,6.44
2018-09-30T05:49:52.923Z,6.48
2018-09-30T05:52:57.348Z,6.60
2018-09-30T05:56:01.794Z,6.64
2018-09-30T05:59:06.282Z,6.76
2018-09-30T06:02:10.707Z,6.85
2018-09-30T06:05:15.139Z,7.05
2018-09-30T06:08:19.546Z,7.35
2018-09-30T06:11:23.994Z,8.08
2018-09-30T06:14:28.407Z,9.38
2018-09-30T06:17:33.715Z,10.54
2018-09-30T06:20:38.259Z,11.88
2018-09-30T06:23:42.763Z,12.82
2018-09-30T06:26:47.256Z,14.11
2018-09-30T06:29:51.695Z,15.07
2018-09-30T06:32:56.130Z,15.69
2018-09-30T06:36:00.594Z,16.69
2018-09-30T06:39:07.999Z,16.72
2018-09-30T06:42:12.459Z,17.35
2018-09-30T06:45:17.004Z,16.65
2018-09-30T06:48:21.432Z,16.48
2018-09-30T06:51:25.883Z,16.24
2018-09-30T06:54:30.687Z,16.47
2018-09-30T06:57:35.130Z,16.24
2018-09-30T07:00:39.573Z,15.20
2018-09-30T07:03:44.059Z,13.57
2018-09-30T07:06:48.541Z,11.99
2018-09-30T07:09:59.652Z,11.91
2018-09-30T07:13:04.098Z,11.44
2018-09-30T07:16:08.524Z,11.41
2018-09-30T07:19:12.954Z,10.81
2018-09-30T07:22:17.443Z,10.59
2018-09-30T07:25:21.826Z,10.53
2018-09-30T07:28:26.291Z,10.44
2018-09-30T07:31:30.739Z,10.22
2018-09-30T07:34:35.271Z,10.40
2018-09-30T07:37:39.720Z,10.40
2018-09-30T07:40:44.170Z,10.49
2018-09-30T07:43:48.622Z,10.67
2018-09-30T07:46:53.167Z,10.82
2018-09-30T07:49:57.592Z,10.81
2018-09-30T07:53:02.130Z,10.81
2018-09-30T07:56:06.570Z,10.80
2018-09-30T07:59:11.004Z,10.99
2018-09-30T08:02:15.487Z,10.95
2018-09-30T08:05:19.909Z,11.01
2018-09-30T08:08:24.345Z,11.05
2018-09-30T08:11:28.775Z,11.20
2018-09-30T08:14:33.222Z,11.39
2018-09-30T08:17:37.670Z,11.40
2018-09-30T08:20:42.164Z,11.44
2018-09-30T08:23:46.626Z,11.59
2018-09-30T08:26:51.104Z,11.75
2018-09-30T08:29:55.651Z,11.78
2018-09-30T08:33:00.166Z,11.95
2018-09-30T08:36:08.535Z,12.20
2018-09-30T08:39:13.046Z,12.30
2018-09-30T08:42:17.491Z,12.44
2018-09-30T08:45:21.905Z,12.74
2018-09-30T08:48:26.589Z,13.07
2018-09-30T08:51:31.009Z,12.95
2018-09-30T08:54:35.435Z,13.09
2018-09-30T08:57:39.862Z,13.46
2018-09-30T09:00:44.377Z,13.76
2018-09-30T09:03:48.821Z,14.22
2018-09-30T09:06:53.238Z,14.53
2018-09-30T09:09:57.775Z,14.87
2018-09-30T09:13:02.175Z,15.35
2018-09-30T09:16:06.599Z,15.80
2018-09-30T09:19:11.026Z,16.17
2018-09-30T09:22:15.499Z,16.76
2018-09-30T09:25:19.958Z,16.98
2018-09-30T09:28:24.395Z,17.25
2018-09-30T09:31:28.869Z,17.17
2018-09-30T09:34:33.259Z,17.48
2018-09-30T09:37:38.335Z,17.80
2018-09-30T09:40:42.802Z,17.98
2018-09-30T09:43:47.326Z,18.28
2018-09-30T09:46:51.805Z,18.56
2018-09-30T09:49:56.298Z,18.29
2018-09-30T09:53:00.737Z,18.56
2018-09-30T09:56:05.163Z,18.68
2018-09-30T09:59:09.661Z,18.95
2018-09-30T10:02:14.182Z,19.19
2018-09-30T10:05:19.221Z,19.11
2018-09-30T10:08:23.691Z,19.23
2018-09-30T10:11:28.169Z,19.35
2018-09-30T10:14:32.606Z,19.56
2018-09-30T10:17:37.061Z,19.84
2018-09-30T10:20:41.483Z,19.71
2018-09-30T10:23:45.910Z,20.03
2018-09-30T10:26:50.331Z,20.32
2018-09-30T10:29:54.812Z,20.48
2018-09-30T10:32:59.338Z,20.69
2018-09-30T10:36:03.793Z,20.83
2018-09-30T10:39:10.328Z,20.77
2018-09-30T10:42:14.687Z,20.69
2018-09-30T10:45:19.157Z,20.68
2018-09-30T10:48:23.612Z,20.92
2018-09-30T10:51:28.024Z,20.88
2018-09-30T10:54:32.463Z,20.99
2018-09-30T10:57:36.878Z,21.00
2018-09-30T11:00:41.314Z,21.31
2018-09-30T11:03:45.827Z,21.45
2018-09-30T11:06:50.351Z,21.44
2018-09-30T11:09:54.849Z,21.51
2018-09-30T11:12:59.293Z,21.55
2018-09-30T11:16:03.859Z,21.60
2018-09-30T11:19:08.305Z,21.83
2018-09-30T11:22:12.776Z,21.89
2018-09-30T11:25:17.266Z,21.34
2018-09-30T11:28:21.725Z,21.29
2018-09-30T11:31:26.251Z,21.56
2018-09-30T11:34:30.692Z,21.60
2018-09-30T11:37:35.106Z,21.50
2018-09-30T11:40:39.623Z,21.57
2018-09-30T11:43:44.038Z,21.86
2018-09-30T11:46:48.480Z,21.41
2018-09-30T11:49:52.910Z,21.20
2018-09-30T11:52:57.327Z,21.46
2018-09-30T11:56:01.822Z,21.56
2018-09-30T11:59:06.331Z,21.72
2018-09-30T12:02:10.832Z,22.09
2018-09-30T12:05:15.320Z,22.06
2018-09-30T12:08:19.845Z,22.16
2018-09-30T12:11:24.341Z,22.20
2018-09-30T12:14:28.878Z,22.24
2018-09-30T12:17:33.407Z,22.37
2018-09-30T12:20:37.905Z,22.47
2018-09-30T12:23:42.346Z,22.45
2018-09-30T12:26:46.858Z,22.41
2018-09-30T12:29:51.320Z,22.44
2018-09-30T12:32:55.895Z,22.63
2018-09-30T12:36:00.609Z,22.52
2018-09-30T12:39:07.024Z,22.49
2018-09-30T12:42:11.442Z,22.69
2018-09-30T12:45:16.087Z,22.75
2018-09-30T12:48:20.885Z,22.78
2018-09-30T12:51:25.430Z,22.70
2018-09-30T12:54:29.943Z,22.78
2018-09-30T12:57:34.398Z,22.90
2018-09-30T13:00:38.831Z,23.11
2018-09-30T13:03:43.357Z,23.14
2018-09-30T13:06:47.884Z,23.16
2018-09-30T13:09:52.410Z,23.29
2018-09-30T13:12:59.053Z,23.07
2018-09-30T13:16:03.559Z,23.16
2018-09-30T13:19:08.019Z,23.34
2018-09-30T13:22:12.450Z,23.20
2018-09-30T13:25:16.909Z,23.21
2018-09-30T13:28:21.354Z,23.21
2018-09-30T13:31:25.813Z,24.28
2018-09-30T13:34:30.262Z,25.20
2018-09-30T13:37:34.702Z,25.73
2018-09-30T13:40:39.404Z,26.00
2018-09-30T13:43:43.803Z,25.97
2018-09-30T13:46:48.357Z,26.00
2018-09-30T13:49:52.956Z,26.00
2018-09-30T13:52:57.513Z,25.77
2018-09-30T13:56:01.978Z,25.80
2018-09-30T13:59:06.477Z,25.61
2018-09-30T14:02:10.947Z,25.22
2018-09-30T14:05:15.410Z,24.81
2018-09-30T14:08:19.937Z,24.55
2018-09-30T14:11:24.595Z,24.43
2018-09-30T14:14:29.030Z,24.03
2018-09-30T14:17:34.332Z,23.69
2018-09-30T14:20:38.784Z,23.50
2018-09-30T14:23:43.384Z,23.24
2018-09-30T14:26:47.848Z,22.90
2018-09-30T14:29:52.259Z,22.58
2018-09-30T14:32:56.697Z,22.47
2018-09-30T14:36:01.121Z,22.58
2018-09-30T14:39:09.807Z,22.62
2018-09-30T14:42:14.230Z,22.69
2018-09-30T14:45:18.666Z,22.72
2018-09-30T14:48:23.232Z,22.52
2018-09-30T14:51:27.526Z,22.48
2018-09-30T14:54:32.077Z,22.36
2018-09-30T14:57:36.454Z,22.16
2018-09-30T15:00:40.979Z,21.85
2018-09-30T15:03:45.975Z,21.68
2018-09-30T15:06:50.535Z,21.56
2018-09-30T15:09:55.046Z,21.25
2018-09-30T15:12:59.571Z,21.15
2018-09-30T15:16:05.075Z,21.04
2018-09-30T15:19:09.609Z,21.01
2018-09-30T15:22:14.030Z,20.94
2018-09-30T15:25:18.510Z,20.84
2018-09-30T15:28:23.036Z,20.78
2018-09-30T15:31:27.470Z,20.76
2018-09-30T15:34:31.911Z,20.64
2018-09-30T15:37:36.317Z,20.57
2018-09-30T15:40:40.858Z,20.53
2018-09-30T15:43:45.301Z,20.57
2018-09-30T15:46:49.764Z,20.46
2018-09-30T15:49:54.200Z,20.33
2018-09-30T15:52:58.614Z,20.25
2018-09-30T15:56:03.075Z,20.25
2018-09-30T15:59:07.570Z,20.07
2018-09-30T16:02:11.994Z,19.92
2018-09-30T16:05:16.468Z,19.79
2018-09-30T16:08:20.891Z,19.67
2018-09-30T16:11:25.385Z,19.61
2018-09-30T16:14:29.912Z,19.48
2018-09-30T16:17:34.895Z,19.34
2018-09-30T16:20:39.395Z,19.24
2018-09-30T16:23:43.818Z,19.16
2018-09-30T16:26:48.312Z,19.08
2018-09-30T16:29:52.761Z,18.93
2018-09-30T16:32:57.170Z,18.88
2018-09-30T16:36:01.646Z,18.70
2018-09-30T16:39:08.423Z,18.46
2018-09-30T16:42:12.922Z,18.27
2018-09-30T16:45:17.386Z,18.02
2018-09-30T16:48:21.902Z,17.83
2018-09-30T16:51:26.473Z,17.67
2018-09-30T16:54:30.991Z,17.50
2018-09-30T16:57:35.526Z,17.30
2018-09-30T17:00:39.984Z,17.18
2018-09-30T17:03:44.573Z,17.06
2018-09-30T17:06:49.091Z,16.90
2018-09-30T17:09:53.545Z,16.74
2018-09-30T17:12:58.006Z,16.65
2018-09-30T17:16:02.494Z,16.56
2018-09-30T17:19:06.962Z,16.48
2018-09-30T17:22:11.413Z,16.41
2018-09-30T17:25:15.998Z,16.31
2018-09-30T17:28:20.479Z,16.14
2018-09-30T17:31:24.923Z,16.03
2018-09-30T17:34:29.318Z,15.92
2018-09-30T17:37:33.783Z,15.84
2018-09-30T17:40:38.261Z,15.81
2018-09-30T17:43:42.687Z,15.90
2018-09-30T17:46:47.168Z,15.75
2018-09-30T17:49:51.743Z,15.60
2018-09-30T17:52:56.186Z,15.44
2018-09-30T17:56:00.642Z,15.34
2018-09-30T17:59:05.098Z,15.23
2018-09-30T18:02:09.550Z,15.15
2018-09-30T18:05:13.982Z,15.14
2018-09-30T18:08:18.433Z,15.10
2018-09-30T18:11:22.877Z,15.15
2018-09-30T18:14:27.591Z,15.17
2018-09-30T18:17:32.055Z,15.05
2018-09-30T18:20:36.482Z,14.94
2018-09-30T18:23:41.045Z,14.84
2018-09-30T18:26:45.507Z,14.77
2018-09-30T18:29:49.941Z,14.69
2018-09-30T18:32:54.929Z,14.62
2018-09-30T18:35:59.478Z,14.52
2018-09-30T18:39:04.859Z,14.46
2018-09-30T18:42:09.368Z,14.39
2018-09-30T18:45:13.804Z,14.38
2018-09-30T18:48:18.295Z,14.30
2018-09-30T18:51:22.803Z,14.21
2018-09-30T18:54:27.319Z,14.10
2018-09-30T18:57:32.133Z,14.00
2018-09-30T19:00:36.561Z,13.97
2018-09-30T19:03:41.263Z,13.92
2018-09-30T19:06:45.738Z,13.91
2018-09-30T19:09:50.452Z,13.94
2018-09-30T19:12:54.998Z,13.97
2018-09-30T19:15:59.924Z,13.94
2018-09-30T19:19:04.706Z,13.97
2018-09-30T19:22:09.426Z,14.02
2018-09-30T19:25:14.101Z,14.04
2018-09-30T19:28:18.607Z,14.10
2018-09-30T19:31:23.038Z,14.12
2018-09-30T19:34:27.482Z,14.16
2018-09-30T19:37:32.241Z,14.17
2018-09-30T19:40:37.576Z,14.18
2018-09-30T19:43:42.151Z,14.18
2018-09-30T19:46:46.606Z,14.02
2018-09-30T19:49:51.231Z,13.94
2018-09-30T19:52:55.706Z,13.83
2018-09-30T19:56:00.232Z,13.75
2018-09-30T19:59:05.107Z,13.74
2018-09-30T20:02:09.803Z,13.69
2018-09-30T20:05:14.270Z,13.62
2018-09-30T20:08:18.745Z,13.56
2018-09-30T20:11:23.389Z,13.48
2018-09-30T20:14:27.827Z,13.41
2018-09-30T20:17:32.727Z,13.35
2018-09-30T20:20:37.265Z,13.29
2018-09-30T20:23:41.730Z,13.23
2018-09-30T20:26:46.166Z,13.15
2018-09-30T20:29:50.783Z,13.07
2018-09-30T20:32:55.354Z,13.09
2018-09-30T20:35:59.834Z,13.05
2018-09-30T20:39:06.351Z,12.94
2018-09-30T20:42:10.831Z,12.94
2018-09-30T20:45:15.274Z,12.94
2018-09-30T20:48:19.746Z,12.91
2018-09-30T20:51:24.214Z,12.77
2018-09-30T20:54:28.690Z,12.74
2018-09-30T20:57:33.110Z,12.79
2018-09-30T21:00:37.670Z,12.65
2018-09-30T21:03:42.109Z,12.57
2018-09-30T21:06:46.772Z,12.55
2018-09-30T21:09:51.326Z,12.56
2018-09-30T21:12:55.820Z,12.48
2018-09-30T21:16:00.987Z,12.47
2018-09-30T21:19:05.562Z,12.49
2018-09-30T21:22:09.974Z,12.47
2018-09-30T21:25:14.419Z,12.43
2018-09-30T21:28:18.891Z,12.41
2018-09-30T21:31:23.338Z,12.40
2018-09-30T21:34:27.778Z,12.44
2018-09-30T21:37:32.258Z,12.46
2018-09-30T21:40:36.769Z,12.41
2018-09-30T21:43:41.194Z,12.50
2018-09-30T21:46:45.634Z,12.39
2018-09-30T21:49:50.095Z,12.47
2018-09-30T21:52:54.555Z,12.33
2018-09-30T21:55:59.030Z,12.23
2018-09-30T21:59:03.460Z,12.14
2018-09-30T22:02:07.917Z,12.18
2018-09-30T22:05:12.369Z,12.10
2018-09-30T22:08:16.814Z,12.01
2018-09-30T22:11:21.264Z,11.89
2018-09-30T22:14:25.688Z,11.85
2018-09-30T22:17:30.119Z,11.75
2018-09-30T22:20:34.561Z,11.89
2018-09-30T22:23:38.966Z,11.91
2018-09-30T22:26:43.426Z,11.87
2018-09-30T22:29:47.875Z,11.91
2018-09-30T22:32:52.338Z,11.98
2018-09-30T22:35:56.770Z,12.01
2018-09-30T22:39:01.216Z,12.05
2018-09-30T22:42:05.671Z,11.94
2018-09-30T22:45:10.179Z,11.83
2018-09-30T22:48:14.595Z,11.89
2018-09-30T22:51:19.027Z,11.97
2018-09-30T22:54:23.430Z,11.88
2018-09-30T22:57:27.915Z,11.96
2018-09-30T23:00:32.350Z,11.98
2018-09-30T23:03:36.775Z,11.89
2018-09-30T23:06:41.208Z,11.87
2018-09-30T23:09:45.671Z,11.87
2018-09-30T23:12:50.176Z,11.79
2018-09-30T23:15:54.618Z,11.59
2018-09-30T23:18:59.058Z,11.70
2018-09-30T23:22:03.534Z,11.58
2018-09-30T23:25:08.034Z,11.53
2018-09-30T23:28:12.499Z,11.50
2018-09-30T23:31:16.983Z,11.52
2018-09-30T23:34:21.665Z,11.48
2018-09-30T23:37:26.102Z,11.45
2018-09-30T23:40:30.534Z,11.45
2018-09-30T23:43:35.011Z,11.45
2018-09-30T23:46:39.508Z,11.57
2018-09-30T23:49:43.942Z,11.55
2018-09-30T23:52:48.388Z,11.61
2018-09-30T23:55:52.801Z,11.73
2018-09-30T23:58:57.298Z,11.86
